GON weather

Groton New London Airport
Groton (New London), Connecticut, United States

Public forecast

Using degrees Fahrenheit for public forecast. Weather courtesy of forecast.io.

Current aviation weather report (METAR) for Groton New London Airport

Retrieved 2019/10/23 09:43 UTC (3 minutes ago):

KGON 230943Z AUTO 21006KT 7SM -RA BKN003 OVC007 17/ A2972 RMK AO2 RAB00 P0007 T0172

Aviation forecast (TAF) for Groton New London Airport

Retrieved 2019/10/23 06:28 UTC (3 hours ago):

TAF KGON 230526Z 2306/2406 08008KT 2SM -RA BR OVC005 TEMPO 2306/2307 13006KT 1SM -RA BR OVC003 FM230900 29008KT 4SM -RA BR OVC006 FM231100 30010KT 5SM BR BKN025 OVC035 FM231400 29012G17KT P6SM SCT025 SCT250 FM231600 28015G23KT P6SM FEW250 FM232100 29010KT P6SM SKC FM240400 30005KT P6SM SKC